Time;durP1;ratioP1;P1;durP2;ratioP2;P2;SDS_P1;SDS_P2;PMS_P1;PMS_P2;Temp;Humidity;BMP_temperature;BMP_pressure;BME280_temperature;BME280_humidity;BME280_pressure;Samples;Min_cycle;Max_cycle;Signal;HPM_P1;HPM_P2
2021/03/08 00:00:35;;;;;;;18.95;12.20;;;-0.60;99.90;;;;;;482391;235;27445;-84
2021/03/08 00:06:42;;;;;;;18.55;11.90;;;-0.80;99.90;;;;;;485388;236;27536;-83
2021/03/08 00:08:43;;;;;;;16.15;12.32;;;-0.80;99.90;;;;;;494341;233;27447;-83
2021/03/08 00:10:44;;;;;;;19.08;12.68;;;-0.80;99.90;;;;;;497803;240;27319;-83
2021/03/08 00:12:48;;;;;;;15.73;11.57;;;-0.80;99.90;;;;;;497752;240;27326;-85
2021/03/08 00:14:49;;;;;;;16.25;12.07;;;-0.80;99.90;;;;;;497759;240;27386;-85
2021/03/08 00:16:51;;;;;;;19.37;12.63;;;-0.80;99.90;;;;;;497798;240;27385;-85
2021/03/08 00:18:54;;;;;;;17.25;12.88;;;-0.80;99.90;;;;;;497501;240;27322;-85
2021/03/08 00:20:56;;;;;;;17.58;12.32;;;-0.80;99.90;;;;;;497039;240;27425;-84
2021/03/08 00:22:58;;;;;;;17.15;12.10;;;-0.80;99.90;;;;;;497281;240;27310;-85
2021/03/08 00:25:00;;;;;;;18.37;12.37;;;-0.70;99.90;;;;;;497364;240;27400;-84
2021/03/08 00:27:01;;;;;;;15.98;11.48;;;-0.70;99.90;;;;;;497347;240;27403;-84
2021/03/08 00:29:02;;;;;;;13.75;11.02;;;-0.70;99.90;;;;;;497301;240;27398;-84
2021/03/08 00:31:04;;;;;;;12.68;10.70;;;-0.60;99.90;;;;;;497328;240;27302;-84
2021/03/08 00:33:05;;;;;;;21.25;12.57;;;-0.60;99.90;;;;;;497254;240;27411;-85
2021/03/08 00:35:07;;;;;;;19.73;12.60;;;-0.50;99.90;;;;;;497323;240;27496;-83
2021/03/08 00:37:11;;;;;;;15.93;10.95;;;-0.60;99.90;;;;;;497323;240;27481;-84
2021/03/08 00:39:12;;;;;;;18.92;11.82;;;-0.60;99.90;;;;;;497297;240;27404;-85
2021/03/08 00:41:15;;;;;;;19.37;12.45;;;-0.60;99.90;;;;;;497325;240;27480;-83
2021/03/08 00:43:16;;;;;;;13.52;11.55;;;-0.60;99.90;;;;;;497302;240;27338;-83
2021/03/08 00:45:18;;;;;;;15.23;12.02;;;-0.60;99.90;;;;;;497321;240;27395;-85
2021/03/08 00:47:19;;;;;;;14.77;11.50;;;-0.60;99.90;;;;;;497300;240;27306;-84
2021/03/08 00:49:21;;;;;;;15.70;11.55;;;-0.60;99.90;;;;;;497308;240;27398;-84
2021/03/08 00:51:23;;;;;;;16.75;11.00;;;-0.60;99.90;;;;;;497361;240;27386;-84
2021/03/08 00:53:24;;;;;;;14.95;11.80;;;-0.50;99.90;;;;;;497327;240;27410;-84
2021/03/08 00:55:27;;;;;;;15.15;11.35;;;-0.50;99.90;;;;;;496252;240;27508;-85
2021/03/08 00:57:29;;;;;;;16.37;10.50;;;-0.50;99.90;;;;;;489943;238;27533;-84
2021/03/08 00:59:32;;;;;;;17.02;12.60;;;-0.40;99.90;;;;;;497320;240;27493;-85
2021/03/08 01:01:33;;;;;;;17.40;11.90;;;-0.40;99.90;;;;;;497895;237;27522;-85
2021/03/08 01:03:35;;;;;;;15.77;11.43;;;-0.40;99.90;;;;;;499469;237;27325;-84
2021/03/08 01:05:37;;;;;;;18.83;12.00;;;-0.40;99.90;;;;;;497904;237;27379;-84
2021/03/08 01:07:38;;;;;;;17.10;12.63;;;-0.40;99.90;;;;;;497769;240;27474;-84
2021/03/08 01:09:40;;;;;;;18.00;11.88;;;-0.40;99.90;;;;;;499433;237;27302;-83
2021/03/08 01:11:41;;;;;;;15.32;11.43;;;-0.40;99.90;;;;;;497874;238;27415;-84
2021/03/08 01:13:43;;;;;;;15.55;11.00;;;-0.40;99.90;;;;;;497866;238;27505;-85
2021/03/08 01:15:45;;;;;;;15.27;12.15;;;-0.40;99.90;;;;;;499455;237;27305;-84
2021/03/08 01:17:45;;;;;;;15.23;11.00;;;-0.40;99.90;;;;;;497841;240;27487;-84
2021/03/08 01:19:47;;;;;;;14.48;11.30;;;-0.40;99.90;;;;;;497865;237;27494;-84
2021/03/08 01:21:49;;;;;;;14.77;11.48;;;-0.40;99.90;;;;;;499460;239;27302;-85
2021/03/08 01:23:51;;;;;;;17.33;11.18;;;-0.30;99.90;;;;;;497877;238;27414;-84
2021/03/08 01:25:54;;;;;;;16.75;10.80;;;-0.40;99.90;;;;;;497636;238;27406;-84
2021/03/08 01:27:56;;;;;;;11.95;10.13;;;-0.40;99.90;;;;;;499439;239;27382;-84
2021/03/08 01:29:58;;;;;;;12.93;9.93;;;-0.40;99.90;;;;;;497884;236;27315;-83
2021/03/08 01:31:59;;;;;;;14.85;10.52;;;-0.40;99.90;;;;;;497897;240;27318;-85
2021/03/08 01:34:00;;;;;;;13.43;10.10;;;-0.40;99.90;;;;;;499475;236;27314;-85
2021/03/08 01:36:02;;;;;;;16.60;11.82;;;-0.40;99.90;;;;;;497883;238;27364;-86
2021/03/08 01:38:04;;;;;;;16.92;10.77;;;-0.40;99.90;;;;;;497849;238;27366;-85
2021/03/08 01:40:05;;;;;;;17.90;11.75;;;-0.40;99.90;;;;;;499437;237;27282;-84
2021/03/08 01:42:06;;;;;;;16.85;10.93;;;-0.40;99.90;;;;;;497877;237;27478;-85
2021/03/08 01:44:11;;;;;;;14.38;10.45;;;-0.50;99.90;;;;;;494117;235;27444;-84
2021/03/08 01:46:13;;;;;;;17.33;10.80;;;-0.50;99.90;;;;;;491131;242;27405;-83
2021/03/08 01:48:16;;;;;;;13.00;10.25;;;-0.50;99.90;;;;;;492547;240;27327;-84
2021/03/08 01:50:17;;;;;;;12.05;9.57;;;-0.50;99.90;;;;;;496415;239;27308;-84
2021/03/08 01:52:19;;;;;;;14.02;10.15;;;-0.60;99.90;;;;;;496399;240;27334;-84
2021/03/08 01:54:21;;;;;;;17.67;9.45;;;-0.60;99.90;;;;;;496410;240;27308;-85
2021/03/08 01:56:22;;;;;;;13.88;10.43;;;-0.60;99.90;;;;;;496335;240;27299;-83
2021/03/08 01:58:23;;;;;;;15.75;9.57;;;-0.60;99.90;;;;;;496406;238;27337;-84
2021/03/08 02:00:24;;;;;;;13.90;10.00;;;-0.60;99.90;;;;;;496410;240;27300;-84
2021/03/08 02:02:26;;;;;;;19.27;11.05;;;-0.70;99.90;;;;;;496375;240;27308;-83
2021/03/08 02:04:27;;;;;;;16.00;10.32;;;-0.70;99.90;;;;;;496252;240;27399;-84
2021/03/08 02:06:29;;;;;;;15.85;9.70;;;-0.70;99.90;;;;;;496406;238;27320;-85
2021/03/08 02:08:31;;;;;;;15.70;10.88;;;-0.60;99.90;;;;;;496393;237;27328;-84
2021/03/08 02:10:33;;;;;;;12.52;9.23;;;-0.60;99.90;;;;;;496383;240;27331;-85
2021/03/08 02:12:36;;;;;;;12.80;9.35;;;-0.60;99.90;;;;;;496359;240;27430;-85
2021/03/08 02:14:37;;;;;;;14.68;9.82;;;-0.50;99.90;;;;;;496334;238;27307;-84
2021/03/08 02:16:38;;;;;;;13.00;8.77;;;-0.60;99.90;;;;;;496379;238;27415;-84
2021/03/08 02:18:42;;;;;;;17.50;10.07;;;-0.60;99.90;;;;;;496402;240;27323;-83
2021/03/08 02:20:43;;;;;;;13.27;9.65;;;-0.60;99.90;;;;;;496385;238;27336;-84
2021/03/08 02:22:45;;;;;;;13.73;9.05;;;-0.70;99.90;;;;;;496348;240;27304;-83
2021/03/08 02:24:47;;;;;;;14.35;9.52;;;-0.70;99.90;;;;;;496285;238;27332;-85
2021/03/08 02:26:51;;;;;;;13.80;9.27;;;-0.70;99.90;;;;;;496371;238;27395;-83
2021/03/08 02:28:52;;;;;;;11.98;8.35;;;-0.70;99.90;;;;;;496362;240;27331;-86
2021/03/08 02:30:53;;;;;;;11.15;8.63;;;-0.80;99.90;;;;;;496410;240;27395;-84
2021/03/08 02:32:55;;;;;;;15.82;9.90;;;-0.80;99.90;;;;;;496388;240;27395;-85
2021/03/08 02:34:56;;;;;;;15.48;9.68;;;-1.00;99.90;;;;;;496322;238;27308;-85
2021/03/08 02:36:58;;;;;;;16.70;10.35;;;-1.00;99.90;;;;;;496410;240;27315;-85
2021/03/08 02:38:59;;;;;;;24.83;10.52;;;-1.10;99.90;;;;;;496382;240;27311;-83
2021/03/08 02:41:00;;;;;;;12.00;9.30;;;-1.10;99.90;;;;;;496360;240;27323;-84
2021/03/08 02:43:02;;;;;;;14.45;9.50;;;-1.10;99.90;;;;;;496387;240;27289;-85
2021/03/08 02:45:04;;;;;;;13.98;9.68;;;-1.20;99.90;;;;;;495969;237;27331;-86
2021/03/08 02:47:05;;;;;;;14.07;9.00;;;-1.20;99.90;;;;;;495223;238;27300;-85
2021/03/08 02:49:07;;;;;;;11.23;8.30;;;-1.20;99.90;;;;;;495224;238;27386;-84
2021/03/08 02:51:09;;;;;;;11.80;8.95;;;-1.20;99.90;;;;;;494958;241;27340;-84
2021/03/08 02:53:10;;;;;;;11.88;8.88;;;-1.30;99.90;;;;;;495260;238;27387;-83
2021/03/08 02:55:11;;;;;;;13.80;9.40;;;-1.30;99.90;;;;;;495174;241;27395;-83
2021/03/08 02:57:12;;;;;;;18.62;9.25;;;-1.30;99.90;;;;;;495226;241;27392;-83
2021/03/08 02:59:14;;;;;;;13.65;10.18;;;-1.30;99.90;;;;;;495162;241;27392;-82
2021/03/08 03:01:16;;;;;;;14.45;9.80;;;-1.30;99.90;;;;;;495221;241;27327;-83
2021/03/08 03:03:18;;;;;;;15.23;9.70;;;-1.30;99.90;;;;;;495214;240;27399;-84
2021/03/08 03:05:19;;;;;;;14.18;9.55;;;-1.40;99.90;;;;;;495196;239;27398;-85
2021/03/08 03:07:20;;;;;;;14.07;10.15;;;-1.50;99.90;;;;;;495225;238;27337;-84
2021/03/08 03:09:22;;;;;;;13.95;10.30;;;-1.50;99.90;;;;;;495178;241;27325;-85
2021/03/08 03:11:23;;;;;;;15.65;10.35;;;-1.60;99.90;;;;;;495232;238;27301;-83
2021/03/08 03:13:24;;;;;;;14.95;9.35;;;-1.60;99.90;;;;;;495224;239;27392;-85
2021/03/08 03:15:25;;;;;;;13.73;10.30;;;-1.60;99.90;;;;;;493391;241;27307;-83
2021/03/08 03:17:27;;;;;;;13.95;10.70;;;-1.60;99.90;;;;;;495219;239;27411;-84
2021/03/08 03:19:28;;;;;;;14.32;11.10;;;-1.70;99.90;;;;;;495198;239;27381;-85
2021/03/08 03:21:29;;;;;;;15.77;10.35;;;-1.70;99.90;;;;;;495222;240;27331;-84
2021/03/08 03:23:31;;;;;;;15.98;10.15;;;-1.70;99.90;;;;;;495216;239;27387;-85
2021/03/08 03:25:32;;;;;;;14.82;10.93;;;-1.70;99.90;;;;;;495234;239;27316;-84
2021/03/08 03:27:34;;;;;;;14.60;10.48;;;-1.80;99.90;;;;;;495183;241;27317;-84
2021/03/08 03:29:35;;;;;;;14.20;10.57;;;-1.80;99.90;;;;;;494239;237;27322;-84
2021/03/08 03:31:36;;;;;;;18.75;12.37;;;-1.70;99.90;;;;;;494245;240;27396;-85
2021/03/08 03:33:39;;;;;;;17.15;12.60;;;-1.70;99.90;;;;;;494221;240;27309;-84
2021/03/08 03:35:40;;;;;;;21.35;12.60;;;-1.70;99.90;;;;;;494133;241;27357;-84
2021/03/08 03:37:43;;;;;;;13.93;11.40;;;-1.70;99.90;;;;;;494233;238;27336;-84
2021/03/08 03:39:44;;;;;;;17.60;12.10;;;-1.80;99.90;;;;;;493642;241;27307;-84
2021/03/08 03:41:45;;;;;;;18.52;11.00;;;-1.80;99.90;;;;;;492738;241;27317;-85
2021/03/08 03:43:46;;;;;;;13.82;10.88;;;-1.80;99.90;;;;;;494257;239;27317;-84
2021/03/08 03:45:48;;;;;;;18.70;13.18;;;-1.90;99.90;;;;;;493956;241;27302;-86
2021/03/08 03:47:49;;;;;;;14.63;11.05;;;-1.90;99.90;;;;;;494245;239;27316;-84
2021/03/08 03:49:50;;;;;;;16.02;12.23;;;-1.90;99.90;;;;;;494144;239;27293;-84
2021/03/08 03:51:51;;;;;;;19.45;13.07;;;-1.90;99.90;;;;;;494267;241;27336;-84
2021/03/08 03:53:53;;;;;;;24.05;14.85;;;-1.90;99.90;;;;;;493934;241;27371;-86
2021/03/08 03:55:55;;;;;;;20.62;14.25;;;-1.90;99.90;;;;;;497188;233;27247;-82
2021/03/08 03:57:56;;;;;;;19.67;13.68;;;-1.90;99.90;;;;;;493113;241;27339;-84
2021/03/08 03:59:59;;;;;;;25.90;15.95;;;-1.90;99.90;;;;;;485070;245;27588;-83
2021/03/08 04:02:00;;;;;;;23.62;14.70;;;-1.90;99.90;;;;;;485280;244;27311;-84
2021/03/08 04:04:02;;;;;;;19.50;14.13;;;-1.80;99.90;;;;;;485288;245;27308;-85
2021/03/08 04:06:05;;;;;;;18.00;13.30;;;-1.80;99.90;;;;;;485046;245;27295;-84
2021/03/08 04:08:08;;;;;;;17.45;13.10;;;-1.90;99.90;;;;;;485210;245;27337;-84
2021/03/08 04:10:10;;;;;;;20.90;12.63;;;-2.00;99.90;;;;;;485309;245;27314;-86
2021/03/08 04:12:13;;;;;;;18.40;13.00;;;-2.00;99.90;;;;;;483810;246;27320;-85
2021/03/08 04:14:15;;;;;;;16.90;12.50;;;-2.00;99.90;;;;;;485558;245;27422;-85
2021/03/08 04:16:16;;;;;;;20.02;13.80;;;-2.10;99.90;;;;;;485252;246;27406;-85
2021/03/08 04:20:54;;;;;;;17.98;12.95;;;-2.10;99.90;;;;;;489712;243;27278;-82
2021/03/08 04:22:55;;;;;;;18.37;13.13;;;-2.10;99.90;;;;;;488398;244;27440;-85
2021/03/08 04:24:56;;;;;;;18.87;12.88;;;-2.10;99.90;;;;;;489656;244;27245;-87
2021/03/08 04:29:17;;;;;;;19.95;12.05;;;-2.20;99.90;;;;;;491686;238;27339;-86
2021/03/08 04:31:18;;;;;;;24.83;12.82;;;-2.20;99.90;;;;;;494460;241;27339;-84
2021/03/08 04:33:19;;;;;;;19.08;12.95;;;-2.20;99.90;;;;;;494493;237;27398;-84
2021/03/08 04:35:20;;;;;;;21.23;12.55;;;-2.20;99.90;;;;;;494490;237;27294;-83
2021/03/08 04:37:22;;;;;;;20.83;12.32;;;-2.20;99.90;;;;;;494239;241;27420;-86
2021/03/08 04:39:23;;;;;;;17.77;13.20;;;-2.20;99.90;;;;;;494499;237;27507;-84
2021/03/08 04:41:24;;;;;;;19.17;12.82;;;-2.30;99.90;;;;;;494464;241;27386;-84
2021/03/08 04:43:26;;;;;;;24.92;15.38;;;-2.40;99.90;;;;;;494490;241;27494;-85
2021/03/08 04:45:27;;;;;;;30.48;17.70;;;-2.40;99.90;;;;;;494489;241;27414;-84
2021/03/08 04:47:29;;;;;;;27.42;15.07;;;-2.50;99.90;;;;;;494037;241;27522;-84
2021/03/08 04:49:30;;;;;;;20.42;14.05;;;-2.50;99.90;;;;;;494260;237;27181;-87
2021/03/08 04:51:33;;;;;;;19.98;13.20;;;-2.50;99.90;;;;;;493254;241;27270;-83
2021/03/08 04:53:34;;;;;;;21.70;13.88;;;-2.50;99.90;;;;;;494225;241;27288;-84
2021/03/08 04:55:35;;;;;;;20.98;13.93;;;-2.40;99.90;;;;;;494163;241;27430;-85
2021/03/08 04:57:37;;;;;;;18.08;13.00;;;-2.40;99.90;;;;;;494423;241;27181;-85
2021/03/08 04:59:40;;;;;;;20.42;13.10;;;-2.40;99.90;;;;;;494528;237;27494;-83
2021/03/08 05:01:39;;;;;;;25.62;14.00;;;-2.50;99.90;;;;;;493852;241;27406;-84
2021/03/08 05:06:01;;;;;;;19.80;14.23;;;-2.50;99.90;;;;;;494749;237;27302;-85
2021/03/08 05:08:03;;;;;;;21.62;15.05;;;-2.60;99.90;;;;;;494743;237;27451;-84
2021/03/08 05:10:05;;;;;;;19.55;13.20;;;-2.50;99.90;;;;;;494447;241;27063;-85
2021/03/08 05:12:06;;;;;;;19.67;13.50;;;-2.60;99.90;;;;;;494489;241;27520;-85
2021/03/08 05:14:07;;;;;;;21.52;14.13;;;-2.60;99.90;;;;;;494507;241;27073;-84
2021/03/08 05:16:09;;;;;;;22.05;14.52;;;-2.60;99.90;;;;;;493235;241;27379;-85
2021/03/08 05:18:10;;;;;;;21.75;14.60;;;-2.60;99.90;;;;;;494573;237;27422;-84
2021/03/08 05:20:11;;;;;;;22.42;14.65;;;-2.60;99.90;;;;;;494502;237;27467;-84
2021/03/08 05:22:12;;;;;;;17.25;13.13;;;-2.60;99.90;;;;;;494453;241;27381;-84
2021/03/08 05:24:14;;;;;;;21.60;14.63;;;-2.60;99.90;;;;;;494465;241;27422;-84
2021/03/08 05:26:15;;;;;;;21.02;15.02;;;-2.70;99.90;;;;;;494505;241;27413;-84
2021/03/08 05:28:16;;;;;;;20.62;14.30;;;-2.70;99.90;;;;;;494375;237;27111;-83
2021/03/08 05:30:17;;;;;;;24.60;16.12;;;-2.70;99.90;;;;;;494397;241;27207;-84
2021/03/08 05:32:19;;;;;;;25.45;16.37;;;-2.70;99.90;;;;;;494535;237;27394;-83
2021/03/08 05:34:20;;;;;;;23.12;15.50;;;-2.70;99.90;;;;;;494431;241;27317;-84
2021/03/08 05:36:21;;;;;;;24.02;16.00;;;-2.70;99.90;;;;;;494409;241;27169;-83
2021/03/08 05:38:23;;;;;;;24.77;16.27;;;-2.80;99.90;;;;;;494520;237;27406;-84
2021/03/08 05:40:25;;;;;;;23.17;15.75;;;-2.80;99.90;;;;;;494530;241;27204;-84
2021/03/08 05:42:26;;;;;;;20.83;15.30;;;-2.80;99.90;;;;;;494482;237;27315;-83
2021/03/08 05:44:28;;;;;;;22.00;14.70;;;-2.90;99.90;;;;;;494338;241;27220;-84
2021/03/08 05:46:29;;;;;;;25.08;15.35;;;-2.90;99.90;;;;;;494521;237;27194;-85
2021/03/08 05:48:30;;;;;;;20.98;15.15;;;-3.00;99.90;;;;;;494211;237;27432;-85
2021/03/08 05:50:31;;;;;;;21.87;15.13;;;-3.00;99.90;;;;;;493262;240;27306;-84
2021/03/08 05:52:33;;;;;;;18.27;13.30;;;-3.00;99.90;;;;;;494503;241;27290;-84
2021/03/08 05:54:34;;;;;;;23.77;15.27;;;-3.00;99.90;;;;;;494453;241;27305;-84
2021/03/08 05:56:35;;;;;;;24.12;14.90;;;-3.00;99.90;;;;;;494328;241;27163;-84
2021/03/08 05:58:36;;;;;;;20.88;14.90;;;-2.90;99.90;;;;;;494490;237;27372;-84
2021/03/08 06:00:38;;;;;;;22.40;14.50;;;-2.90;99.90;;;;;;494375;237;27072;-84
2021/03/08 06:02:39;;;;;;;24.65;16.42;;;-2.80;99.90;;;;;;494514;241;27422;-85
2021/03/08 06:04:40;;;;;;;21.42;14.23;;;-2.70;99.90;;;;;;494483;241;28388;-84
2021/03/08 06:13:08;;;;;;;23.62;14.35;;;-2.80;99.90;;;;;;479372;241;27170;-81
2021/03/08 06:27:26;;;;;;;21.60;14.10;;;-2.80;99.90;;;;;;476984;240;27268;-83
2021/03/08 06:44:03;;;;;;;20.12;14.93;;;-2.50;99.90;;;;;;479305;244;27064;-84
2021/03/08 06:50:11;;;;;;;21.33;14.55;;;-2.50;99.90;;;;;;493448;234;28533;-82
2021/03/08 06:52:12;;;;;;;24.27;15.23;;;-2.40;99.90;;;;;;477214;241;27854;-85
2021/03/08 07:08:41;;;;;;;21.15;14.15;;;-2.30;99.90;;;;;;493380;234;27327;-84
2021/03/08 07:18:59;;;;;;;24.52;13.95;;;-1.90;99.90;;;;;;470543;251;29159;-84
2021/03/08 07:25:07;;;;;;;21.98;13.90;;;-1.70;99.90;;;;;;487770;234;28597;-80
2021/03/08 07:43:44;;;;;;;13.13;8.35;;;-0.10;99.90;;;;;;479802;240;27525;-86
2021/03/08 07:47:48;;;;;;;13.45;9.13;;;0.00;99.90;;;;;;478992;239;28600;-83
2021/03/08 07:56:05;;;;;;;13.45;9.90;;;0.40;99.90;;;;;;486822;235;27468;-83
2021/03/08 08:10:24;;;;;;;13.38;8.65;;;0.80;99.90;;;;;;469523;241;28500;-82
2021/03/08 08:18:34;;;;;;;12.98;7.95;;;1.00;99.90;;;;;;469694;237;27440;-82
2021/03/08 08:22:38;;;;;;;14.32;8.90;;;1.10;99.90;;;;;;466284;246;27721;-83
2021/03/08 08:28:44;;;;;;;10.82;7.70;;;1.30;99.90;;;;;;479338;240;28613;-83
2021/03/08 08:30:46;;;;;;;14.32;9.05;;;1.30;99.90;;;;;;486342;236;28904;-83
2021/03/08 08:32:47;;;;;;;16.87;9.77;;;1.40;99.90;;;;;;478794;241;27460;-81
2021/03/08 08:41:12;;;;;;;22.25;11.30;;;1.60;99.90;;;;;;489285;234;27512;31
2021/03/08 08:47:24;;;;;;;17.83;10.20;;;1.70;99.90;;;;;;481266;236;27470;-86
2021/03/08 08:53:32;;;;;;;19.60;10.73;;;1.80;99.90;;;;;;487653;236;27443;-84
2021/03/08 09:01:44;;;;;;;17.50;11.52;;;1.90;99.90;;;;;;482870;246;27404;-83
2021/03/08 09:07:52;;;;;;;14.20;10.47;;;2.20;99.90;;;;;;484465;239;27539;-79
2021/03/08 09:32:36;;;;;;;15.07;9.20;;;2.70;99.90;;;;;;486078;245;27893;-82
2021/03/08 09:40:49;;;;;;;17.40;8.73;;;3.00;99.90;;;;;;493107;236;27439;-85
2021/03/08 09:49:03;;;;;;;13.20;7.97;;;3.00;99.90;;;;;;486953;234;27347;-83
2021/03/08 09:53:09;;;;;;;11.80;7.40;;;3.20;99.90;;;;;;480358;234;27448;-82
2021/03/08 09:57:20;;;;;;;12.88;8.65;;;3.30;99.90;;;;;;487517;242;27558;-86
2021/03/08 10:17:59;;;;;;;9.85;6.60;;;4.20;99.90;;;;;;480670;234;28449;-84
2021/03/08 10:44:44;;;;;;;9.50;6.20;;;4.50;99.90;;;;;;481450;235;27504;-82
2021/03/08 10:59:07;;;;;;;12.13;6.47;;;4.50;99.90;;;;;;483473;240;27463;-83
2021/03/08 11:07:24;;;;;;;7.60;5.10;;;4.50;99.90;;;;;;484249;234;27388;-83
2021/03/08 11:09:25;;;;;;;9.80;5.72;;;4.60;99.90;;;;;;485606;233;27442;-83
2021/03/08 11:13:30;;;;;;;12.63;6.35;;;4.90;99.90;;;;;;483164;234;27489;-83
2021/03/08 11:19:36;;;;;;;6.93;5.43;;;5.10;99.90;;;;;;476545;241;27502;-84
2021/03/08 11:27:55;;;;;;;7.20;5.15;;;5.10;99.90;;;;;;495647;233;27510;-85
2021/03/08 11:42:15;;;;;;;8.23;5.90;;;5.30;99.90;;;;;;483768;233;27401;-80
2021/03/08 11:46:19;;;;;;;5.72;4.28;;;5.30;99.90;;;;;;491827;237;27432;-85
2021/03/08 11:52:28;;;;;;;6.12;4.55;;;5.40;99.90;;;;;;480507;233;27491;-86
2021/03/08 11:54:30;;;;;;;8.80;5.70;;;5.50;99.90;;;;;;485910;245;27461;-84
2021/03/08 12:07:05;;;;;;;9.52;4.87;;;5.60;99.90;;;;;;484287;238;27394;-82
2021/03/08 18:10:34;;;;;;;15.10;9.50;;;3.80;99.90;;;;;;490112;241;27358;-81
2021/03/08 18:14:39;;;;;;;18.45;9.68;;;3.80;99.90;;;;;;477528;243;27424;-82
2021/03/08 18:16:42;;;;;;;13.27;8.80;;;3.70;99.90;;;;;;482373;235;27448;-82
2021/03/08 18:18:42;;;;;;;12.95;8.65;;;3.70;99.90;;;;;;489297;242;27341;-84
2021/03/08 18:20:43;;;;;;;17.65;10.25;;;3.60;99.90;;;;;;482317;242;27493;-80
2021/03/08 18:22:44;;;;;;;13.88;9.40;;;3.60;99.90;;;;;;476960;235;27492;-81
2021/03/08 18:24:46;;;;;;;15.27;8.95;;;3.50;99.90;;;;;;469733;247;27502;-81
2021/03/08 18:26:47;;;;;;;16.30;10.40;;;3.50;99.90;;;;;;487027;235;28587;-82
2021/03/08 18:30:51;;;;;;;18.23;10.45;;;3.40;99.90;;;;;;488755;242;27481;-81
2021/03/08 18:32:53;;;;;;;17.55;10.95;;;3.40;99.90;;;;;;487018;242;28465;-81
2021/03/08 18:34:54;;;;;;;15.02;9.95;;;3.30;99.90;;;;;;476545;243;27400;-82
2021/03/08 18:36:58;;;;;;;18.10;11.00;;;3.30;99.90;;;;;;476543;243;27376;-82
2021/03/08 18:38:56;;;;;;;18.55;10.18;;;3.20;99.90;;;;;;473015;239;27505;-82
2021/03/08 18:40:58;;;;;;;15.70;8.30;;;3.20;99.90;;;;;;475792;248;27510;-82
2021/03/08 18:42:59;;;;;;;14.32;8.85;;;3.20;99.90;;;;;;475791;246;27495;-81
2021/03/08 18:45:00;;;;;;;12.07;8.13;;;3.10;99.90;;;;;;475768;248;27530;-81
2021/03/08 18:47:01;;;;;;;11.60;7.97;;;3.10;99.90;;;;;;475807;248;27491;-82
2021/03/08 18:49:03;;;;;;;9.70;7.50;;;3.10;99.90;;;;;;475801;246;28158;-81
2021/03/08 18:51:04;;;;;;;12.60;8.23;;;3.00;99.90;;;;;;475806;251;28182;-82
2021/03/08 18:53:05;;;;;;;16.42;8.52;;;3.00;99.90;;;;;;475784;240;29798;-78
2021/03/08 18:55:06;;;;;;;9.43;7.40;;;3.00;99.90;;;;;;485944;236;27493;-83
2021/03/08 18:57:08;;;;;;;13.68;7.75;;;2.90;99.90;;;;;;480454;234;27415;-82
2021/03/08 19:01:12;;;;;;;11.95;8.48;;;2.80;99.90;;;;;;487033;245;27492;-81
2021/03/08 19:07:19;;;;;;;11.93;7.75;;;2.80;99.90;;;;;;481844;243;28205;-81
2021/03/08 19:13:27;;;;;;;13.98;8.00;;;2.60;99.90;;;;;;475652;240;27482;-83
2021/03/08 19:15:30;;;;;;;11.02;7.60;;;2.60;99.90;;;;;;467099;246;27443;31
2021/03/08 19:21:42;;;;;;;9.30;7.12;;;2.40;99.90;;;;;;470932;241;27529;-83
2021/03/08 19:23:42;;;;;;;12.27;8.25;;;2.40;99.90;;;;;;477494;243;27590;-82
2021/03/08 19:25:46;;;;;;;9.95;7.35;;;2.40;99.90;;;;;;488961;236;27491;-83
2021/03/08 19:27:48;;;;;;;11.40;8.35;;;2.40;99.90;;;;;;486830;233;27563;-82
2021/03/08 19:29:49;;;;;;;13.70;8.73;;;2.40;99.90;;;;;;480059;234;27442;-81
2021/03/08 19:31:57;;;;;;;13.70;8.70;;;2.30;99.90;;;;;;488416;234;28953;-82
2021/03/08 19:38:02;;;;;;;18.08;11.23;;;2.10;99.90;;;;;;477213;236;30467;-81
2021/03/08 19:42:07;;;;;;;13.75;8.32;;;2.10;99.90;;;;;;485300;246;27392;-87
2021/03/08 19:48:24;;;;;;;9.85;7.07;;;2.00;99.90;;;;;;476667;249;27418;-82
2021/03/08 19:52:30;;;;;;;15.32;7.37;;;1.90;99.90;;;;;;465799;252;27738;-84
2021/03/08 19:56:40;;;;;;;10.70;7.25;;;1.80;99.90;;;;;;471469;253;27486;-84
2021/03/08 19:58:41;;;;;;;10.93;7.03;;;1.70;99.90;;;;;;483483;241;27411;-81
2021/03/08 20:00:46;;;;;;;10.45;7.00;;;1.70;99.90;;;;;;492534;241;27503;-83
2021/03/08 20:11:07;;;;;;;15.25;7.47;;;1.50;99.90;;;;;;485424;246;27434;-82
2021/03/08 20:13:08;;;;;;;12.65;8.15;;;1.40;99.90;;;;;;493713;238;27474;-87
2021/03/08 20:17:22;;;;;;;12.10;7.20;;;1.30;99.90;;;;;;482953;234;27395;-82
2021/03/08 20:19:22;;;;;;;10.10;7.45;;;1.30;99.90;;;;;;488247;237;28209;-82
2021/03/08 20:27:39;;;;;;;17.80;10.32;;;1.30;99.90;;;;;;480406;246;28229;-82
2021/03/08 20:31:44;;;;;;;18.12;9.15;;;1.20;99.90;;;;;;476700;244;28435;-81
2021/03/08 20:35:49;;;;;;;10.23;6.75;;;1.10;99.90;;;;;;478113;242;27439;-82
2021/03/08 20:37:50;;;;;;;11.20;7.20;;;1.00;99.90;;;;;;484291;241;27483;-81
2021/03/08 20:46:03;;;;;;;11.15;7.25;;;0.80;99.90;;;;;;476889;248;27413;-83
2021/03/08 20:48:04;;;;;;;13.20;7.57;;;0.80;99.90;;;;;;476929;248;27374;-84
2021/03/08 20:52:18;;;;;;;11.18;7.03;;;0.80;99.90;;;;;;487143;243;27479;-82
2021/03/08 21:04:53;;;;;;;10.32;6.55;;;0.60;99.90;;;;;;477873;249;27569;-83
2021/03/08 21:06:52;;;;;;;7.05;5.10;;;0.60;99.90;;;;;;472476;246;27528;-81
2021/03/08 21:11:06;;;;;;;10.93;6.37;;;0.60;99.90;;;;;;476568;242;27443;-82
2021/03/08 21:23:38;;;;;;;9.95;5.75;;;0.40;99.90;;;;;;493091;236;27437;-81
2021/03/08 21:29:54;;;;;;;10.35;6.40;;;0.40;99.90;;;;;;490520;235;27437;-84
2021/03/08 21:40:35;;;;;;;12.68;8.20;;;0.20;99.90;;;;;;486003;235;27445;-82
2021/03/08 21:50:52;;;;;;;15.57;7.90;;;0.00;99.90;;;;;;467986;248;28206;-83
2021/03/08 21:57:01;;;;;;;14.68;7.62;;;0.10;99.90;;;;;;471873;237;27497;-84
2021/03/08 22:01:06;;;;;;;12.30;7.70;;;0.00;99.90;;;;;;478422;234;27485;-82
2021/03/08 22:05:11;;;;;;;13.13;8.35;;;-0.10;99.90;;;;;;485368;241;27389;-83
2021/03/08 22:07:12;;;;;;;13.00;9.55;;;-0.20;99.90;;;;;;478018;241;27486;-84
2021/03/08 22:11:18;;;;;;;11.93;8.57;;;-0.20;99.90;;;;;;489320;236;27360;-83
2021/03/08 22:15:22;;;;;;;9.52;7.40;;;-0.30;99.90;;;;;;493264;235;27378;-79
2021/03/08 22:17:23;;;;;;;12.25;7.22;;;-0.30;99.90;;;;;;487683;233;27518;-78
2021/03/08 22:25:34;;;;;;;10.05;7.10;;;-0.30;99.90;;;;;;473258;240;27519;-83
2021/03/08 22:29:38;;;;;;;8.43;6.12;;;-0.30;99.90;;;;;;480973;238;27561;-83
2021/03/08 22:33:43;;;;;;;10.55;6.47;;;-0.30;99.90;;;;;;484288;237;27562;-83
2021/03/08 22:35:44;;;;;;;7.70;5.87;;;-0.30;99.90;;;;;;488764;237;27439;-84
2021/03/08 22:37:46;;;;;;;9.07;6.30;;;-0.30;99.90;;;;;;476268;238;27420;-84
2021/03/08 22:39:47;;;;;;;13.65;6.70;;;-0.30;99.90;;;;;;478325;240;27515;-83
2021/03/08 22:43:50;;;;;;;12.43;7.30;;;-0.30;99.90;;;;;;482137;232;27518;-84
2021/03/08 22:54:12;;;;;;;10.88;7.40;;;-0.50;99.90;;;;;;482996;237;27519;-82
2021/03/08 23:04:33;;;;;;;14.85;7.25;;;-0.50;99.90;;;;;;477723;245;27517;-87
2021/03/08 23:08:37;;;;;;;10.48;6.00;;;-0.50;99.90;;;;;;479902;236;27500;-85
2021/03/08 23:10:39;;;;;;;11.40;7.80;;;-0.50;99.90;;;;;;475958;239;28477;-84
2021/03/08 23:12:40;;;;;;;14.35;7.15;;;-0.60;99.90;;;;;;485965;233;29805;-86
2021/03/08 23:16:46;;;;;;;14.10;7.57;;;-0.60;99.90;;;;;;487255;233;27440;-82
2021/03/08 23:20:51;;;;;;;8.88;6.30;;;-0.60;99.90;;;;;;485417;243;27483;-81
2021/03/08 23:22:52;;;;;;;14.63;8.18;;;-0.70;99.90;;;;;;484290;237;27511;-83
2021/03/08 23:31:10;;;;;;;14.38;9.35;;;-0.70;99.90;;;;;;488731;240;27389;-86
2021/03/08 23:37:25;;;;;;;13.50;6.97;;;-0.80;99.90;;;;;;491481;236;27440;-84
2021/03/08 23:39:27;;;;;;;9.25;6.60;;;-0.80;99.90;;;;;;487845;236;27521;-83
2021/03/08 23:49:40;;;;;;;12.75;8.15;;;-0.80;99.90;;;;;;481760;233;27522;-84
2021/03/08 23:51:42;;;;;;;17.08;8.45;;;-0.80;99.90;;;;;;473588;245;27469;-83
2021/03/08 23:59:50;;;;;;;11.85;7.32;;;-0.70;99.90;;;;;;476441;239;27457;-82
